Time;durP1;ratioP1;P1;durP2;ratioP2;P2;SDS_P1;SDS_P2;PMS_P1;PMS_P2;Temp;Humidity;BMP_temperature;BMP_pressure;BME280_temperature;BME280_humidity;BME280_pressure;Samples;Min_cycle;Max_cycle;Signal;HPM_P1;HPM_P2
2021/10/06 00:00:27;;;;;;;1.75;0.30;;;;;;;11.57;100.00;99203.16;6337273;22;20029;-48
2021/10/06 00:03:30;;;;;;;0.10;0.10;;;;;;;11.61;100.00;99206.47;6337297;22;20021;-48
2021/10/06 00:06:34;;;;;;;0.10;0.10;;;;;;;11.61;100.00;99214.81;6337963;22;20030;-48
2021/10/06 00:09:36;;;;;;;0.40;0.20;;;;;;;11.61;100.00;99220.41;6337374;22;20040;-48
2021/10/06 00:12:40;;;;;;;2.45;0.68;;;;;;;11.72;100.00;99212.13;6337480;22;20120;-48
2021/10/06 00:15:45;;;;;;;0.10;0.10;;;;;;;11.67;100.00;99212.88;6337349;22;20041;-48
2021/10/06 00:18:48;;;;;;;6.35;0.57;;;;;;;11.61;100.00;99225.97;6337359;22;20029;-48
2021/10/06 00:21:51;;;;;;;6.60;0.57;;;;;;;11.67;100.00;99229.63;6336982;22;20030;-48
2021/10/06 00:24:54;;;;;;;1.58;1.05;;;;;;;11.72;100.00;99237.25;6337665;22;20079;-49
2021/10/06 00:27:57;;;;;;;15.23;0.52;;;;;;;11.69;100.00;99231.91;6336647;22;20022;-48
2021/10/06 00:31:00;;;;;;;4.38;0.20;;;;;;;11.73;100.00;99232.44;6337524;22;20094;-49
2021/10/06 00:34:03;;;;;;;0.52;0.25;;;;;;;11.66;100.00;99239.22;6338465;22;20048;-48
2021/10/06 00:37:06;;;;;;;8.90;0.45;;;;;;;11.79;100.00;99244.38;6339901;22;20322;-48
2021/10/06 00:40:09;;;;;;;0.10;0.10;;;;;;;11.78;100.00;99240.06;6339618;22;20025;-48
2021/10/06 00:43:13;;;;;;;1.05;0.25;;;;;;;11.77;100.00;99222.56;6339904;22;20026;-48
2021/10/06 00:46:16;;;;;;;1.30;0.57;;;;;;;11.76;100.00;99243.34;6338317;22;20059;-48
2021/10/06 00:49:19;;;;;;;0.10;0.10;;;;;;;11.76;100.00;99253.75;6320520;22;20029;-49
2021/10/06 00:52:22;;;;;;;0.90;0.30;;;;;;;11.73;100.00;99266.69;6338971;22;20496;-48
2021/10/06 00:55:26;;;;;;;3.63;0.68;;;;;;;11.65;100.00;99265.56;6339123;22;20026;-48
2021/10/06 00:58:30;;;;;;;0.38;0.25;;;;;;;11.61;100.00;99270.59;6338489;22;20021;-49
2021/10/06 01:01:34;;;;;;;1.35;0.38;;;;;;;11.63;100.00;99287.59;6339057;22;20115;-49
2021/10/06 01:04:37;;;;;;;0.10;0.10;;;;;;;11.72;100.00;99304.19;6338871;22;20487;-48
2021/10/06 01:07:40;;;;;;;3.35;0.57;;;;;;;11.70;100.00;99305.94;6338115;22;20022;-49
2021/10/06 01:10:44;;;;;;;0.20;0.15;;;;;;;11.78;100.00;99312.59;6338578;22;20136;-48
2021/10/06 01:13:47;;;;;;;1.17;0.63;;;;;;;11.74;100.00;99318.41;6339634;22;20052;-48
2021/10/06 01:16:52;;;;;;;0.20;0.20;;;;;;;11.73;100.00;99311.31;6338799;22;20465;-48
2021/10/06 01:19:55;;;;;;;8.07;0.40;;;;;;;11.76;100.00;99327.03;6339443;22;20072;-48
2021/10/06 01:22:58;;;;;;;0.47;0.47;;;;;;;11.81;100.00;99323.53;6338667;22;20026;-48
2021/10/06 01:26:01;;;;;;;2.35;0.40;;;;;;;11.84;100.00;99338.50;6339425;22;20021;-48
2021/10/06 01:29:04;;;;;;;0.20;0.20;;;;;;;11.92;100.00;99359.09;6338985;22;20026;-48
2021/10/06 01:32:13;;;;;;;3.13;0.57;;;;;;;11.99;100.00;99356.63;6338880;22;20021;-48
2021/10/06 01:35:16;;;;;;;2.15;0.20;;;;;;;12.06;100.00;99364.53;6338892;22;20025;-48
2021/10/06 01:38:19;;;;;;;0.15;0.13;;;;;;;12.03;100.00;99356.41;6339144;22;20026;-48
2021/10/06 01:41:22;;;;;;;2.92;0.73;;;;;;;12.08;100.00;99364.03;6338752;22;20022;-49
2021/10/06 01:44:25;;;;;;;0.10;0.10;;;;;;;12.06;100.00;99366.56;6339022;22;20076;-49
2021/10/06 01:47:28;;;;;;;1.00;0.75;;;;;;;11.96;100.00;99366.00;6338717;22;20664;-48
2021/10/06 01:51:36;;;;;;;0.35;0.28;;;;;;;11.93;100.00;99364.19;6339072;22;20065;-48
2021/10/06 01:54:39;;;;;;;0.10;0.10;;;;;;;11.79;100.00;99364.34;6338842;22;20021;-48
2021/10/06 01:57:42;;;;;;;0.10;0.10;;;;;;;11.71;100.00;99377.22;6338715;22;20458;-48
2021/10/06 02:00:48;;;;;;;0.20;0.20;;;;;;;11.70;100.00;99367.31;6338912;22;20022;-48
2021/10/06 02:03:51;;;;;;;0.30;0.30;;;;;;;11.57;100.00;99376.03;6338337;22;20099;-48
2021/10/06 02:06:54;;;;;;;0.20;0.20;;;;;;;11.47;100.00;99383.06;6338856;22;20343;-48
2021/10/06 02:09:57;;;;;;;4.88;0.63;;;;;;;11.44;100.00;99395.19;6338479;22;20387;-48
2021/10/06 02:13:00;;;;;;;0.40;0.40;;;;;;;11.44;100.00;99375.66;6339017;22;20064;-48
2021/10/06 02:16:04;;;;;;;0.43;0.40;;;;;;;11.44;100.00;99395.97;6338535;22;20025;-48
2021/10/06 02:19:07;;;;;;;7.30;0.40;;;;;;;11.57;100.00;99403.94;6338593;22;20080;-48
2021/10/06 02:22:10;;;;;;;0.22;0.22;;;;;;;11.62;100.00;99414.38;6338443;22;20445;-48
2021/10/06 02:25:13;;;;;;;0.20;0.20;;;;;;;11.60;100.00;99402.97;6339038;22;20026;-48
2021/10/06 02:28:16;;;;;;;0.20;0.20;;;;;;;11.53;100.00;99408.19;6338464;22;20071;-48
2021/10/06 02:31:19;;;;;;;3.15;0.88;;;;;;;11.51;100.00;99416.28;6338766;22;20094;-48
2021/10/06 02:34:22;;;;;;;2.45;0.22;;;;;;;11.57;100.00;99422.69;6337691;22;20029;-48
2021/10/06 02:37:25;;;;;;;1.00;0.20;;;;;;;11.65;100.00;99426.59;6339122;22;20041;-48
2021/10/06 02:40:28;;;;;;;2.83;0.60;;;;;;;11.59;100.00;99434.88;6338538;22;20068;-48
2021/10/06 02:43:32;;;;;;;0.20;0.20;;;;;;;11.53;100.00;99453.59;6338597;22;20079;-48
2021/10/06 02:46:34;;;;;;;0.32;0.32;;;;;;;11.58;100.00;99441.72;6338146;22;20403;-48
2021/10/06 02:49:37;;;;;;;0.20;0.20;;;;;;;11.71;100.00;99458.88;6338547;22;20041;-48
2021/10/06 02:52:40;;;;;;;1.17;0.65;;;;;;;11.83;100.00;99457.72;6338445;22;20037;-48
2021/10/06 02:55:43;;;;;;;1.65;0.80;;;;;;;11.84;100.00;99467.63;6338754;22;20080;-47
2021/10/06 02:58:46;;;;;;;0.10;0.10;;;;;;;11.72;100.00;99465.97;6338407;22;20068;-48
2021/10/06 03:01:49;;;;;;;0.40;0.35;;;;;;;11.65;100.00;99477.53;6338844;22;20022;-47
2021/10/06 03:04:52;;;;;;;1.05;0.10;;;;;;;11.67;100.00;99491.81;6338556;22;20454;-48
2021/10/06 03:07:55;;;;;;;8.00;0.22;;;;;;;11.77;100.00;99479.22;6338255;22;20022;-47
2021/10/06 03:10:59;;;;;;;3.05;0.17;;;;;;;11.82;100.00;99481.31;6338093;22;20426;-47
2021/10/06 03:14:02;;;;;;;0.47;0.45;;;;;;;11.82;100.00;99486.13;6338460;22;20025;-47
2021/10/06 03:17:05;;;;;;;0.20;0.20;;;;;;;11.85;100.00;99502.63;6337669;22;20018;-48
2021/10/06 03:20:10;;;;;;;3.72;0.43;;;;;;;11.85;100.00;99519.38;6337931;22;20412;-48
2021/10/06 03:23:13;;;;;;;0.75;0.57;;;;;;;11.77;100.00;99515.50;6338311;22;20544;-47
2021/10/06 03:26:16;;;;;;;0.47;0.28;;;;;;;11.72;100.00;99523.78;6338277;22;20028;-48
2021/10/06 03:29:19;;;;;;;0.65;0.40;;;;;;;11.80;100.00;99538.84;6339128;22;20097;-48
2021/10/06 03:32:22;;;;;;;0.10;0.00;;;;;;;11.78;100.00;99542.09;6340248;22;20025;-47
2021/10/06 03:35:25;;;;;;;0.22;0.22;;;;;;;11.79;100.00;99538.06;6340163;22;20144;-47
2021/10/06 03:38:28;;;;;;;0.95;0.75;;;;;;;11.80;100.00;99533.28;6340523;22;20442;-47
2021/10/06 03:41:30;;;;;;;6.28;0.20;;;;;;;11.81;100.00;99546.72;6339774;22;20060;-47
2021/10/06 03:44:33;;;;;;;5.57;0.20;;;;;;;11.78;100.00;99544.16;6340036;22;20071;-47
2021/10/06 03:47:37;;;;;;;0.35;0.20;;;;;;;11.82;100.00;99556.63;6339806;22;20537;-48
2021/10/06 03:50:40;;;;;;;0.10;0.10;;;;;;;11.80;100.00;99566.75;6340281;22;20095;-47
2021/10/06 03:53:43;;;;;;;6.90;1.17;;;;;;;11.76;100.00;99572.53;6340361;22;20144;-48
2021/10/06 03:56:46;;;;;;;2.22;0.50;;;;;;;11.84;100.00;99584.81;6340339;22;20564;-47
2021/10/06 03:59:49;;;;;;;0.10;0.10;;;;;;;11.82;100.00;99586.56;6340357;22;20022;-47
2021/10/06 04:02:52;;;;;;;0.20;0.13;;;;;;;11.85;100.00;99583.53;6340072;22;20034;-47
2021/10/06 04:05:55;;;;;;;0.10;0.10;;;;;;;11.79;100.00;99579.94;6339865;22;20029;-47
2021/10/06 04:08:58;;;;;;;1.42;0.13;;;;;;;11.68;100.00;99585.38;6340085;22;20025;-47
2021/10/06 04:12:01;;;;;;;0.10;0.10;;;;;;;11.66;100.00;99601.03;6339466;22;20030;-47
2021/10/06 04:15:04;;;;;;;2.13;0.57;;;;;;;11.64;100.00;99607.09;6339871;22;20103;-47
2021/10/06 04:18:07;;;;;;;1.05;0.50;;;;;;;11.60;100.00;99612.13;6339781;22;20067;-47
2021/10/06 04:21:11;;;;;;;5.25;0.45;;;;;;;11.54;100.00;99622.47;6339844;22;20022;-47
2021/10/06 04:24:13;;;;;;;0.40;0.20;;;;;;;11.44;100.00;99623.84;6339441;22;20109;-47
2021/10/06 04:27:16;;;;;;;0.10;0.10;;;;;;;11.39;100.00;99621.75;6339094;22;20025;-47
2021/10/06 04:30:19;;;;;;;1.05;0.10;;;;;;;11.31;100.00;99626.19;6339549;22;20026;-47
2021/10/06 04:33:22;;;;;;;0.20;0.20;;;;;;;11.26;100.00;99635.25;6339749;22;20079;-47
2021/10/06 04:36:25;;;;;;;0.10;0.10;;;;;;;11.14;100.00;99644.69;6339795;22;20025;-47
2021/10/06 04:39:29;;;;;;;0.10;0.10;;;;;;;11.10;100.00;99649.72;6339325;22;20025;-47
2021/10/06 04:42:33;;;;;;;0.20;0.20;;;;;;;11.13;100.00;99648.75;6339301;22;20026;-47
2021/10/06 04:45:35;;;;;;;0.43;0.40;;;;;;;11.07;100.00;99656.25;6338795;22;20026;-47
2021/10/06 04:48:39;;;;;;;0.10;0.08;;;;;;;11.06;100.00;99660.28;6339324;22;20025;-47
2021/10/06 04:51:41;;;;;;;3.80;0.50;;;;;;;11.12;100.00;99672.28;6339227;22;20067;-47
2021/10/06 04:54:44;;;;;;;0.20;0.20;;;;;;;11.16;100.00;99681.97;6339575;22;20083;-47
2021/10/06 04:57:47;;;;;;;6.32;0.32;;;;;;;11.26;100.00;99696.59;6339338;22;20081;-47
2021/10/06 05:00:50;;;;;;;0.10;0.10;;;;;;;11.35;100.00;99699.22;6339279;22;20073;-47
2021/10/06 05:03:53;;;;;;;9.38;0.30;;;;;;;11.34;100.00;99700.50;6339069;22;20224;-47
2021/10/06 05:06:56;;;;;;;0.15;0.10;;;;;;;11.25;100.00;99708.97;6339652;22;20454;-47
2021/10/06 05:09:59;;;;;;;1.27;0.43;;;;;;;11.23;100.00;99715.03;6339453;22;20067;-47
2021/10/06 05:13:02;;;;;;;0.63;0.30;;;;;;;11.14;100.00;99719.94;6339794;22;20025;-47
2021/10/06 05:16:05;;;;;;;0.10;0.10;;;;;;;11.13;100.00;99727.53;6339165;22;20052;-48
2021/10/06 05:19:08;;;;;;;3.75;0.25;;;;;;;11.10;100.00;99736.09;6339471;22;20029;-47
2021/10/06 05:22:11;;;;;;;0.28;0.28;;;;;;;11.15;100.00;99743.78;6339070;22;20029;-47
2021/10/06 05:25:14;;;;;;;0.70;0.32;;;;;;;11.21;100.00;99756.56;6339258;22;20435;-47
2021/10/06 05:28:17;;;;;;;0.52;0.30;;;;;;;11.23;100.00;99758.88;6319669;22;20029;-47
2021/10/06 05:31:21;;;;;;;0.10;0.10;;;;;;;11.22;100.00;99774.81;6338972;22;20064;-48
2021/10/06 05:34:24;;;;;;;2.67;0.55;;;;;;;11.29;100.00;99785.59;6338594;22;20077;-47
2021/10/06 05:37:27;;;;;;;0.20;0.20;;;;;;;11.32;100.00;99795.00;6338943;22;20026;-47
2021/10/06 05:40:30;;;;;;;10.13;1.75;;;;;;;11.31;100.00;99782.31;6338610;22;20064;-47
2021/10/06 05:43:33;;;;;;;10.52;2.00;;;;;;;11.31;100.00;99793.44;6339268;22;20084;-47
2021/10/06 05:46:35;;;;;;;10.80;3.42;;;;;;;11.24;100.00;99791.09;6338973;22;20025;-47
2021/10/06 05:49:38;;;;;;;8.75;1.42;;;;;;;11.23;100.00;99786.75;6338682;22;20030;-47
2021/10/06 05:52:41;;;;;;;1.00;0.40;;;;;;;11.15;100.00;99796.75;6338354;22;20067;-47
2021/10/06 05:55:44;;;;;;;10.13;1.48;;;;;;;11.09;100.00;99804.22;6338729;22;20032;-47
2021/10/06 05:58:47;;;;;;;5.85;1.25;;;;;;;10.94;100.00;99803.44;6338548;22;20080;-47
2021/10/06 06:01:50;;;;;;;14.80;1.80;;;;;;;10.82;100.00;99815.66;6338892;22;20454;-47
2021/10/06 06:04:53;;;;;;;11.85;1.60;;;;;;;10.83;100.00;99820.72;6338843;22;20064;-47
2021/10/06 06:07:56;;;;;;;12.05;3.25;;;;;;;10.90;100.00;99819.59;6339023;22;20462;-47
2021/10/06 06:10:58;;;;;;;5.15;1.27;;;;;;;10.91;100.00;99829.50;6338783;22;20040;-47
2021/10/06 06:14:01;;;;;;;3.22;1.23;;;;;;;10.88;100.00;99822.09;6339380;22;20026;-47
2021/10/06 06:17:05;;;;;;;6.32;1.98;;;;;;;10.73;100.00;99826.84;6338541;22;20025;-47
2021/10/06 06:20:11;;;;;;;1.20;1.08;;;;;;;10.62;100.00;99833.75;6338815;22;20029;-47
2021/10/06 06:23:14;;;;;;;6.53;2.03;;;;;;;10.54;100.00;99840.16;6338718;22;20030;-47
2021/10/06 06:26:17;;;;;;;5.68;0.65;;;;;;;10.50;100.00;99847.94;6339070;22;20038;-47
2021/10/06 06:29:21;;;;;;;9.82;1.60;;;;;;;10.50;100.00;99868.19;6338471;22;20021;-47
2021/10/06 06:32:24;;;;;;;0.93;0.60;;;;;;;10.39;100.00;99864.41;6338625;22;20061;-47
2021/10/06 06:35:27;;;;;;;3.70;0.75;;;;;;;10.34;100.00;99867.84;6335014;22;20026;-47
2021/10/06 06:38:30;;;;;;;5.68;2.13;;;;;;;10.30;100.00;99868.03;6292859;22;20635;-47
2021/10/06 06:41:33;;;;;;;9.50;1.52;;;;;;;10.29;100.00;99880.38;6295808;22;20500;-47
2021/10/06 06:44:36;;;;;;;2.63;0.95;;;;;;;10.20;100.00;99888.03;6294968;22;20295;-47
2021/10/06 06:47:41;;;;;;;10.52;1.50;;;;;;;10.14;100.00;99899.03;6299371;22;20072;-47
2021/10/06 06:50:50;;;;;;;2.63;1.05;;;;;;;10.08;100.00;99898.09;6299433;22;20018;-47
2021/10/06 06:53:53;;;;;;;0.80;0.80;;;;;;;10.11;100.00;99894.41;6303906;22;20695;-47
2021/10/06 06:56:57;;;;;;;1.20;0.75;;;;;;;10.11;100.00;99915.91;6301354;22;20038;-47
2021/10/06 07:00:00;;;;;;;1.00;0.90;;;;;;;10.17;100.00;99912.00;6300792;22;20014;-47
2021/10/06 07:03:03;;;;;;;6.13;1.05;;;;;;;10.22;100.00;99925.25;6301051;22;20094;-47
2021/10/06 07:06:06;;;;;;;4.90;1.05;;;;;;;10.25;100.00;99921.53;6301667;22;20072;-47
2021/10/06 07:09:09;;;;;;;1.77;0.73;;;;;;;10.34;100.00;99917.94;6300753;22;20029;-47
2021/10/06 07:12:13;;;;;;;1.70;0.77;;;;;;;10.36;100.00;99927.38;6300749;22;20155;-47
2021/10/06 07:15:16;;;;;;;3.03;0.82;;;;;;;10.33;100.00;99928.28;6295982;22;20022;-47
2021/10/06 07:18:19;;;;;;;4.15;0.65;;;;;;;10.26;100.00;99928.66;6294623;22;20459;-47
2021/10/06 07:21:22;;;;;;;0.95;0.25;;;;;;;10.32;100.00;99931.56;6295518;22;20387;-47
2021/10/06 07:24:25;;;;;;;2.38;0.70;;;;;;;10.38;100.00;99940.81;6295639;22;20100;-47
2021/10/06 07:27:28;;;;;;;0.52;0.45;;;;;;;10.50;100.00;99948.91;6295689;22;20028;-47
2021/10/06 07:30:31;;;;;;;0.30;0.28;;;;;;;10.52;100.00;99957.59;6283248;22;20017;-47
2021/10/06 07:33:34;;;;;;;1.60;0.47;;;;;;;10.55;100.00;99962.22;6303437;22;20022;-47
2021/10/06 07:36:37;;;;;;;1.45;0.35;;;;;;;10.56;100.00;99969.34;6303067;22;20014;-47
2021/10/06 07:39:40;;;;;;;3.35;0.22;;;;;;;10.66;100.00;99967.25;6299840;22;20678;-47
2021/10/06 07:42:43;;;;;;;0.10;0.10;;;;;;;10.81;100.00;99961.72;6299640;22;20385;-47
2021/10/06 07:45:46;;;;;;;0.40;0.30;;;;;;;10.86;100.00;99969.44;6300574;22;20025;-47
2021/10/06 07:48:49;;;;;;;4.50;0.47;;;;;;;10.87;100.00;99973.78;6301670;22;20675;-47
2021/10/06 07:51:52;;;;;;;0.65;0.65;;;;;;;10.96;100.00;99963.34;6303957;22;20338;-47
2021/10/06 07:54:55;;;;;;;0.47;0.35;;;;;;;10.89;100.00;99971.28;6303905;22;20070;-47
2021/10/06 07:57:58;;;;;;;0.22;0.22;;;;;;;10.88;100.00;99983.66;6303316;22;20100;-48
2021/10/06 08:01:01;;;;;;;0.30;0.30;;;;;;;10.92;100.00;99992.63;6297000;22;20707;-47
2021/10/06 08:04:04;;;;;;;0.20;0.20;;;;;;;11.14;100.00;99990.31;6297311;22;20374;-48
2021/10/06 08:07:07;;;;;;;0.15;0.15;;;;;;;11.18;100.00;100007.59;6296068;22;20049;-48
2021/10/06 08:10:10;;;;;;;2.80;0.35;;;;;;;11.28;100.00;100006.31;6301371;22;20045;-47
2021/10/06 08:13:13;;;;;;;0.20;0.20;;;;;;;11.34;100.00;100015.56;6295811;22;20068;-47
2021/10/06 08:16:16;;;;;;;0.70;0.45;;;;;;;11.46;100.00;100017.31;6299261;22;20018;-47
2021/10/06 08:19:18;;;;;;;1.95;0.55;;;;;;;11.54;100.00;100024.06;6299796;22;20125;-48
2021/10/06 08:22:22;;;;;;;0.40;0.40;;;;;;;11.57;100.00;100017.50;6297719;22;20042;-47
2021/10/06 08:25:26;;;;;;;0.35;0.32;;;;;;;11.54;100.00;100026.84;6298032;22;20068;-47
2021/10/06 08:28:29;;;;;;;0.50;0.30;;;;;;;11.68;100.00;100026.13;6296491;22;20022;-47
2021/10/06 08:31:32;;;;;;;0.17;0.17;;;;;;;11.74;100.00;100024.19;6298573;22;20017;-47
2021/10/06 08:34:35;;;;;;;0.22;0.22;;;;;;;11.81;100.00;100031.44;6299995;22;20200;-47
2021/10/06 08:37:38;;;;;;;1.10;0.65;;;;;;;11.83;100.00;100026.91;6302093;22;20057;-47
2021/10/06 08:40:41;;;;;;;0.20;0.20;;;;;;;11.84;100.00;100042.41;6304657;22;20017;-47
2021/10/06 08:43:45;;;;;;;0.47;0.20;;;;;;;11.77;100.00;100040.00;6301948;22;20770;-47
2021/10/06 08:46:48;;;;;;;0.20;0.20;;;;;;;11.82;100.00;100035.78;6279563;22;20021;-47
2021/10/06 08:49:51;;;;;;;0.20;0.20;;;;;;;11.81;100.00;100037.78;6296803;22;20083;-47
2021/10/06 08:52:54;;;;;;;5.43;0.52;;;;;;;11.91;100.00;100046.84;6278663;22;20299;-47
2021/10/06 08:55:57;;;;;;;0.50;0.38;;;;;;;11.09;100.00;100055.06;6297176;22;20343;-47
2021/10/06 08:59:00;;;;;;;0.35;0.28;;;;;;;11.72;100.00;100062.97;6297105;22;20018;-47
2021/10/06 09:02:14;;;;;;;0.57;0.10;;;;;;;11.93;100.00;100063.88;6295218;22;20084;-47
2021/10/06 09:05:26;;;;;;;0.32;0.20;;;;;;;12.02;100.00;100053.38;6296325;22;20298;-47
2021/10/06 09:08:29;;;;;;;0.30;0.10;;;;;;;12.23;100.00;100061.88;6298238;22;20025;-47
2021/10/06 09:11:32;;;;;;;0.10;0.10;;;;;;;12.27;100.00;100073.63;6297849;22;20091;-47
2021/10/06 09:14:40;;;;;;;3.70;0.40;;;;;;;12.32;100.00;100075.75;6301312;22;20107;-47
2021/10/06 09:17:51;;;;;;;5.32;0.75;;;;;;;12.40;100.00;100068.50;6300698;22;20374;-47
2021/10/06 09:21:07;;;;;;;0.30;0.30;;;;;;;12.50;100.00;100070.69;6298724;22;20035;-47
2021/10/06 09:24:11;;;;;;;1.05;0.20;;;;;;;12.46;100.00;100066.56;6297124;22;20230;-47
2021/10/06 09:27:18;;;;;;;0.10;0.10;;;;;;;12.52;100.00;100076.56;6296995;22;20373;-47
2021/10/06 09:30:21;;;;;;;0.10;0.10;;;;;;;12.17;100.00;100081.34;6297885;22;20021;-47
2021/10/06 09:33:36;;;;;;;0.10;0.10;;;;;;;12.30;100.00;100083.84;6297524;22;20018;-47
2021/10/06 09:36:39;;;;;;;1.90;0.88;;;;;;;12.48;100.00;100076.00;6297609;22;20165;-47
2021/10/06 09:39:51;;;;;;;0.10;0.10;;;;;;;12.68;100.00;100092.06;6296432;22;20084;-47
2021/10/06 09:42:58;;;;;;;;;;;;;;;12.79;100.00;100111.81;6300494;22;20454;-47
2021/10/06 09:46:01;;;;;;;0.80;0.10;;;;;;;12.89;100.00;100104.84;6298681;22;19960;-47
2021/10/06 09:49:22;;;;;;;0.95;0.43;;;;;;;13.07;100.00;100110.25;6296204;22;20045;-47
2021/10/06 09:52:26;;;;;;;10.68;0.20;;;;;;;13.14;100.00;100112.63;6296706;22;20013;-47
2021/10/06 09:55:33;;;;;;;0.10;0.10;;;;;;;13.20;100.00;100116.28;6297677;22;20014;-47
2021/10/06 09:58:37;;;;;;;0.38;0.20;;;;;;;13.17;100.00;100122.06;6296430;22;20017;-47
2021/10/06 10:01:41;;;;;;;0.10;0.10;;;;;;;13.12;100.00;100126.34;6299359;22;20129;-47
2021/10/06 10:04:45;;;;;;;10.23;0.95;;;;;;;13.25;100.00;100135.16;6299286;22;20101;-47
2021/10/06 10:07:50;;;;;;;0.47;0.10;;;;;;;13.43;100.00;100136.91;6297909;22;20057;-48
2021/10/06 10:10:53;;;;;;;11.50;0.30;;;;;;;13.62;100.00;100138.94;6297961;22;20018;-47
2021/10/06 10:13:57;;;;;;;3.88;0.28;;;;;;;13.76;100.00;100139.38;6296446;22;20071;-48
2021/10/06 10:17:00;;;;;;;0.10;0.10;;;;;;;14.02;100.00;100151.41;6296099;22;20585;-48
2021/10/06 10:20:10;;;;;;;2.08;0.20;;;;;;;14.25;100.00;100147.59;6298490;22;20083;-48
2021/10/06 10:23:17;;;;;;;2.97;1.10;;;;;;;14.41;100.00;100144.19;6299380;22;20244;-48
2021/10/06 10:26:24;;;;;;;0.10;0.10;;;;;;;14.59;100.00;100146.69;6278831;22;20431;-48
2021/10/06 10:29:33;;;;;;;0.90;0.10;;;;;;;14.71;100.00;100156.72;6297392;22;20052;-48
2021/10/06 10:32:45;;;;;;;3.42;0.22;;;;;;;14.86;100.00;100162.19;6278399;22;20021;-48
2021/10/06 10:35:48;;;;;;;11.57;0.60;;;;;;;15.16;100.00;100158.59;6297611;22;20018;-48
2021/10/06 10:38:51;;;;;;;1.27;0.10;;;;;;;15.29;100.00;100160.97;6296615;22;20084;-48
2021/10/06 10:41:56;;;;;;;4.05;0.20;;;;;;;15.40;100.00;100157.47;6296787;22;20018;-47
2021/10/06 10:45:37;;;;;;;1.20;0.20;;;;;;;15.40;100.00;100165.91;6296828;22;20347;-47
2021/10/06 10:48:56;;;;;;;4.10;0.28;;;;;;;15.49;100.00;100177.72;6295972;22;20041;-48
2021/10/06 10:51:59;;;;;;;5.72;0.38;;;;;;;15.56;100.00;100176.47;6296122;22;20038;-47
2021/10/06 10:55:03;;;;;;;3.17;0.30;;;;;;;15.57;100.00;100186.44;6296895;22;20375;-47
2021/10/06 10:58:25;;;;;;;0.68;0.50;;;;;;;15.68;100.00;100176.03;6297596;22;20319;-47
2021/10/06 11:01:48;;;;;;;1.33;0.30;;;;;;;15.70;100.00;100178.34;6295819;22;20010;-47
2021/10/06 11:04:59;;;;;;;0.65;0.63;;;;;;;15.75;100.00;100175.56;6296304;22;20022;-47
2021/10/06 11:08:27;;;;;;;1.65;0.40;;;;;;;15.74;100.00;100181.69;6297178;22;20410;-47
2021/10/06 11:11:30;;;;;;;7.82;0.25;;;;;;;15.77;100.00;100183.47;6295553;22;20351;-47
2021/10/06 11:14:40;;;;;;;0.57;0.20;;;;;;;15.71;100.00;100189.06;6296757;22;20745;-48
2021/10/06 11:18:05;;;;;;;2.40;0.10;;;;;;;15.64;100.00;100185.94;6295219;22;20597;-48
2021/10/06 11:21:08;;;;;;;0.50;0.50;;;;;;;15.61;100.00;100184.94;6297870;22;20041;-47
2021/10/06 11:24:22;;;;;;;0.17;0.10;;;;;;;15.79;100.00;100192.94;6295432;22;20064;-47
2021/10/06 11:27:29;;;;;;;2.47;0.32;;;;;;;15.98;100.00;100196.09;6294572;22;20041;-47
2021/10/06 11:30:32;;;;;;;2.03;0.35;;;;;;;16.11;100.00;100190.00;6294710;22;20385;-47
2021/10/06 11:33:36;;;;;;;1.75;0.95;;;;;;;16.14;100.00;100194.59;6295978;22;20018;-47
2021/10/06 11:36:39;;;;;;;4.88;0.43;;;;;;;16.24;100.00;100195.94;6297124;22;20050;-48
2021/10/06 11:39:43;;;;;;;1.85;0.00;;;;;;;16.43;100.00;100199.81;6298406;22;20018;-48
2021/10/06 11:42:48;;;;;;;0.63;0.43;;;;;;;16.39;100.00;100204.91;6296979;22;20540;-48
2021/10/06 11:45:51;;;;;;;2.03;0.40;;;;;;;16.10;100.00;100222.94;6292018;22;20442;-48
2021/10/06 11:48:56;;;;;;;2.15;0.20;;;;;;;15.78;100.00;100218.72;6288750;22;20080;-48
2021/10/06 11:52:00;;;;;;;2.22;0.38;;;;;;;15.71;100.00;100228.38;6292370;22;20022;-47
2021/10/06 11:55:06;;;;;;;0.95;0.35;;;;;;;15.70;100.00;100224.03;6292521;22;20446;-47
2021/10/06 11:58:10;;;;;;;0.10;0.10;;;;;;;15.64;100.00;100236.50;6292059;22;20462;-48
2021/10/06 12:01:13;;;;;;;5.68;0.30;;;;;;;15.55;100.00;100228.28;6290537;22;20412;-48
2021/10/06 12:04:20;;;;;;;0.73;0.43;;;;;;;15.45;100.00;100230.50;6313456;22;20075;-48
2021/10/06 12:07:29;;;;;;;3.33;0.98;;;;;;;15.28;100.00;100231.63;6338632;22;20083;-48
2021/10/06 12:10:36;;;;;;;1.33;0.20;;;;;;;15.15;100.00;100221.59;6339752;22;20102;-47
2021/10/06 12:13:40;;;;;;;0.80;0.30;;;;;;;14.99;100.00;100225.03;6339687;22;20037;-47
2021/10/06 12:16:44;;;;;;;0.70;0.47;;;;;;;14.88;100.00;100219.31;6320765;22;20087;-47
2021/10/06 12:19:58;;;;;;;3.00;0.98;;;;;;;14.90;100.00;100213.97;6339948;22;20069;-47
2021/10/06 12:23:02;;;;;;;1.95;0.45;;;;;;;14.88;100.00;100216.50;6339637;22;20037;-48
2021/10/06 12:26:05;;;;;;;0.90;0.65;;;;;;;14.91;100.00;100221.13;6339925;22;20025;-47
2021/10/06 12:29:08;;;;;;;3.63;0.85;;;;;;;14.87;100.00;100220.59;6338291;22;20060;-47
2021/10/06 12:32:17;;;;;;;2.92;0.63;;;;;;;15.10;100.00;100216.69;6339654;22;20025;-47
2021/10/06 12:35:22;;;;;;;1.75;0.93;;;;;;;15.32;100.00;100209.72;6339201;22;20147;-47
2021/10/06 12:38:40;;;;;;;3.55;1.40;;;;;;;15.49;100.00;100214.19;6339419;22;20068;-47
2021/10/06 12:41:51;;;;;;;0.17;0.17;;;;;;;15.80;100.00;100221.78;6339762;22;20462;-47
2021/10/06 12:44:54;;;;;;;;;;;;;;;16.16;100.00;100220.94;6340366;22;20029;-47
2021/10/06 12:47:58;;;;;;;4.18;0.30;;;;;;;16.26;100.00;100233.50;6339280;22;19921;-47
2021/10/06 12:51:01;;;;;;;0.70;0.70;;;;;;;16.23;100.00;100242.16;6339204;22;20036;-47
2021/10/06 12:54:04;;;;;;;1.05;0.52;;;;;;;16.20;100.00;100249.56;6339979;22;20029;-47
2021/10/06 12:57:14;;;;;;;1.35;1.02;;;;;;;15.98;100.00;100274.75;6339611;22;20491;-52
2021/10/06 13:00:22;;;;;;;4.80;0.45;;;;;;;15.79;100.00;100273.59;6339207;22;20098;-51
2021/10/06 13:03:26;;;;;;;4.18;0.73;;;;;;;15.62;100.00;100278.34;6339751;22;20034;-51
2021/10/06 13:06:30;;;;;;;0.40;0.32;;;;;;;15.44;100.00;100281.53;6339797;22;20068;-52
2021/10/06 13:09:34;;;;;;;2.30;0.57;;;;;;;15.31;100.00;100281.91;6339634;22;20054;-52
2021/10/06 13:12:38;;;;;;;5.18;0.50;;;;;;;15.27;100.00;100277.81;6339834;22;20033;-52
2021/10/06 13:15:41;;;;;;;3.53;0.35;;;;;;;15.30;100.00;100276.78;6320779;22;20037;-52
2021/10/06 13:18:44;;;;;;;0.65;0.20;;;;;;;15.47;100.00;100272.09;6320254;22;20106;-52
2021/10/06 13:21:53;;;;;;;4.68;0.68;;;;;;;15.50;100.00;100276.72;6339172;22;20083;-52
2021/10/06 13:24:56;;;;;;;2.15;0.30;;;;;;;15.69;100.00;100272.28;6339302;22;20026;-51
2021/10/06 13:27:59;;;;;;;8.65;0.68;;;;;;;15.98;100.00;100269.13;6339009;22;20336;-54
2021/10/06 13:31:06;;;;;;;0.15;0.10;;;;;;;16.17;100.00;100273.06;6339187;22;20079;-52
2021/10/06 13:34:09;;;;;;;0.43;0.20;;;;;;;16.20;100.00;100277.66;6339013;22;20133;-52
2021/10/06 13:37:12;;;;;;;0.15;0.13;;;;;;;16.27;100.00;100288.44;6339484;22;20071;-52
2021/10/06 13:40:15;;;;;;;1.65;0.20;;;;;;;16.27;100.00;100298.88;6339124;22;20383;-51
2021/10/06 13:43:18;;;;;;;0.20;0.20;;;;;;;16.14;100.00;100299.34;6339448;22;20060;-52
2021/10/06 13:46:21;;;;;;;1.27;0.20;;;;;;;16.06;100.00;100301.09;6337469;22;20382;-52
2021/10/06 13:49:24;;;;;;;0.10;0.10;;;;;;;15.86;100.00;100298.41;6339017;22;20025;-52
2021/10/06 13:52:27;;;;;;;0.90;0.32;;;;;;;15.82;100.00;100309.13;6338399;22;20460;-52
2021/10/06 13:55:30;;;;;;;4.18;0.20;;;;;;;15.83;100.00;100300.19;6338898;22;20045;-52
2021/10/06 13:58:34;;;;;;;0.10;0.10;;;;;;;15.77;100.00;100323.88;6338643;22;20018;-52
2021/10/06 14:01:38;;;;;;;6.60;1.05;;;;;;;15.62;100.00;100312.03;6338526;22;20021;-52
2021/10/06 14:04:41;;;;;;;0.40;0.20;;;;;;;15.43;100.00;100316.44;6338660;22;20355;-56
2021/10/06 14:07:44;;;;;;;1.10;0.15;;;;;;;15.54;100.00;100322.19;6339043;22;20520;-56
2021/10/06 14:10:47;;;;;;;0.32;0.22;;;;;;;15.69;100.00;100320.00;6338639;22;20068;-56
2021/10/06 14:13:51;;;;;;;0.85;0.35;;;;;;;15.78;100.00;100326.22;6338623;22;20025;-55